createdAt,value
2023-02-02T00:38:47.251Z,378.00
2023-02-02T00:39:47.236Z,381.00
2023-02-02T00:40:47.212Z,383.00
2023-02-02T00:41:47.210Z,382.00
2023-02-02T00:42:47.164Z,385.00
2023-02-02T00:43:47.135Z,381.00
2023-02-02T00:44:47.105Z,381.00
2023-02-02T00:45:47.101Z,378.00
2023-02-02T00:46:47.087Z,378.00
2023-02-02T00:47:47.049Z,378.00
2023-02-02T00:48:47.022Z,380.00
2023-02-02T00:49:47.034Z,378.00
2023-02-02T00:50:46.978Z,376.00
2023-02-02T00:51:46.953Z,374.00
2023-02-02T00:52:46.916Z,373.00
2023-02-02T00:53:46.905Z,373.00
2023-02-02T00:54:46.879Z,377.00
2023-02-02T00:55:46.843Z,378.00
2023-02-02T00:56:46.815Z,376.00
2023-02-02T00:57:46.792Z,373.00
2023-02-02T00:58:46.777Z,369.00
2023-02-02T00:59:46.743Z,371.00
2023-02-02T01:00:46.778Z,370.00
2023-02-02T01:01:46.725Z,370.00
2023-02-02T01:02:46.673Z,370.00
2023-02-02T01:03:46.624Z,372.00
2023-02-02T01:04:46.591Z,372.00
2023-02-02T01:05:46.573Z,373.00
2023-02-02T01:06:46.545Z,372.00
2023-02-02T01:07:46.536Z,369.00
2023-02-02T01:08:46.509Z,372.00
2023-02-02T01:09:46.482Z,374.00
2023-02-02T01:10:46.445Z,374.00
2023-02-02T01:11:46.413Z,373.00
2023-02-02T01:12:46.385Z,368.00
2023-02-02T01:13:46.361Z,370.00
2023-02-02T01:14:46.338Z,370.00
2023-02-02T01:15:46.319Z,372.00
2023-02-02T01:16:46.336Z,371.00
2023-02-02T01:17:46.251Z,371.00
2023-02-02T01:18:46.231Z,371.00
2023-02-02T01:19:46.224Z,370.00
2023-02-02T01:20:46.172Z,369.00
2023-02-02T01:21:46.183Z,370.00
2023-02-02T01:22:46.138Z,372.00
2023-02-02T01:23:46.107Z,375.00
2023-02-02T01:24:46.073Z,376.00
2023-02-02T01:25:46.049Z,374.00
2023-02-02T01:26:46.034Z,372.00
2023-02-02T01:27:45.973Z,379.00
2023-02-02T01:28:45.944Z,378.00
2023-02-02T01:29:45.944Z,378.00
2023-02-02T01:30:45.890Z,379.00
2023-02-02T01:31:45.899Z,377.00
2023-02-02T01:32:45.825Z,379.00
2023-02-02T01:33:45.841Z,376.00
2023-02-02T01:34:45.780Z,376.00
2023-02-02T01:35:45.765Z,375.00
2023-02-02T01:36:45.737Z,378.00
2023-02-02T01:37:45.721Z,378.00
2023-02-02T01:38:45.677Z,377.00
2023-02-02T01:39:45.639Z,373.00
2023-02-02T01:40:45.630Z,371.00
2023-02-02T01:41:45.578Z,370.00
2023-02-02T01:42:45.550Z,370.00
2023-02-02T01:43:45.620Z,369.00
2023-02-02T01:44:45.493Z,371.00
2023-02-02T01:45:45.531Z,372.00
2023-02-02T01:46:45.458Z,372.00
2023-02-02T01:47:45.406Z,371.00
2023-02-02T01:48:45.379Z,371.00
2023-02-02T01:49:45.363Z,370.00
2023-02-02T01:50:45.329Z,374.00
2023-02-02T01:51:45.311Z,371.00
2023-02-02T01:52:45.272Z,373.00
2023-02-02T01:53:45.236Z,374.00
2023-02-02T01:54:45.212Z,374.00
2023-02-02T01:55:45.178Z,373.00
2023-02-02T01:56:45.144Z,372.00
2023-02-02T01:57:45.134Z,373.00
2023-02-02T01:58:45.104Z,370.00
2023-02-02T01:59:45.111Z,371.00
2023-02-02T02:00:46.930Z,372.00
2023-02-02T02:01:45.000Z,371.00
2023-02-02T02:02:44.995Z,371.00
2023-02-02T02:03:44.940Z,370.00
2023-02-02T02:04:44.909Z,370.00
2023-02-02T02:05:44.918Z,370.00
2023-02-02T02:06:44.856Z,370.00
2023-02-02T02:07:44.821Z,372.00
2023-02-02T02:08:44.792Z,373.00
2023-02-02T02:09:44.758Z,376.00
2023-02-02T02:10:44.726Z,377.00
2023-02-02T02:11:44.689Z,377.00
2023-02-02T02:12:44.660Z,376.00
2023-02-02T02:13:44.647Z,373.00
2023-02-02T02:14:44.610Z,374.00
2023-02-02T02:15:44.599Z,373.00
2023-02-02T02:16:44.566Z,371.00
2023-02-02T02:17:44.534Z,375.00
2023-02-02T02:18:44.520Z,374.00
2023-02-02T02:19:44.495Z,374.00
2023-02-02T02:20:44.437Z,373.00
2023-02-02T02:21:44.423Z,373.00
2023-02-02T02:22:44.404Z,371.00
2023-02-02T02:23:44.357Z,371.00
2023-02-02T02:24:44.332Z,370.00
2023-02-02T02:25:44.305Z,371.00
2023-02-02T02:26:44.343Z,373.00
2023-02-02T02:27:44.244Z,375.00
2023-02-02T02:28:44.225Z,373.00
2023-02-02T02:29:44.193Z,374.00
2023-02-02T02:30:44.244Z,372.00
2023-02-02T02:31:44.214Z,371.00
2023-02-02T02:32:44.107Z,372.00
2023-02-02T02:33:44.074Z,371.00
2023-02-02T02:34:44.052Z,370.00
2023-02-02T02:35:44.034Z,372.00
2023-02-02T02:36:44.001Z,370.00
2023-02-02T02:37:43.977Z,372.00
2023-02-02T02:52:43.583Z,366.00
2023-02-02T02:53:43.533Z,364.00
2023-02-02T02:57:43.434Z,362.00
2023-02-02T02:58:43.400Z,361.00
2023-02-02T02:59:43.363Z,362.00
2023-02-02T03:00:43.387Z,362.00
2023-02-02T03:01:43.350Z,362.00
2023-02-02T03:02:43.336Z,365.00
2023-02-02T03:03:43.254Z,368.00
2023-02-02T03:04:43.245Z,367.00
2023-02-02T03:05:43.221Z,365.00
2023-02-02T03:06:43.179Z,362.00
2023-02-02T03:07:43.161Z,362.00
2023-02-02T03:08:43.194Z,364.00
2023-02-02T03:09:43.114Z,361.00
2023-02-02T03:10:43.123Z,363.00
2023-02-02T03:11:43.053Z,363.00
2023-02-02T03:12:43.044Z,364.00
2023-02-02T03:13:43.017Z,361.00
2023-02-02T03:14:42.979Z,363.00
2023-02-02T03:15:42.961Z,365.00
2023-02-02T03:16:42.924Z,366.00
2023-02-02T03:17:42.883Z,365.00
2023-02-02T03:18:42.859Z,365.00
2023-02-02T03:19:42.848Z,366.00
2023-02-02T03:38:42.289Z,361.00
2023-02-02T07:51:40.150Z,705.00
2023-02-02T07:52:37.834Z,715.00
2023-02-02T07:53:37.761Z,712.00
2023-02-02T07:54:37.750Z,708.00
2023-02-02T07:55:37.714Z,702.00
2023-02-02T07:56:37.738Z,701.00
2023-02-02T07:57:37.757Z,697.00
2023-02-02T07:58:38.556Z,697.00
2023-02-02T07:59:37.633Z,694.00
2023-02-02T08:00:37.698Z,688.00
2023-02-02T08:01:37.571Z,684.00
2023-02-02T08:02:37.540Z,680.00
2023-02-02T08:03:37.484Z,677.00
2023-02-02T08:04:37.451Z,677.00
2023-02-02T08:05:37.440Z,675.00
2023-02-02T08:06:37.393Z,669.00
2023-02-02T08:07:37.406Z,669.00
2023-02-02T08:09:37.328Z,662.00
2023-02-02T08:10:37.307Z,654.00
2023-02-02T08:11:37.262Z,649.00
2023-02-02T08:12:37.231Z,649.00
2023-02-02T08:13:37.221Z,650.00
2023-02-02T08:14:37.180Z,651.00
2023-02-02T08:15:37.169Z,647.00
2023-02-02T08:16:37.242Z,645.00
2023-02-02T08:17:37.134Z,644.00
2023-02-02T08:18:37.103Z,640.00
2023-02-02T08:19:37.061Z,638.00
2023-02-02T08:20:37.045Z,636.00
2023-02-02T08:21:37.021Z,634.00
2023-02-02T08:22:37.031Z,633.00
2023-02-02T08:23:36.977Z,629.00
2023-02-02T08:24:36.942Z,628.00
2023-02-02T08:25:36.930Z,626.00
2023-02-02T08:26:36.931Z,621.00
2023-02-02T08:27:37.956Z,618.00
2023-02-02T08:28:36.860Z,613.00
2023-02-02T08:29:36.828Z,610.00
2023-02-02T08:30:36.793Z,607.00
2023-02-02T08:31:36.868Z,604.00
2023-02-02T08:32:36.738Z,601.00
2023-02-02T08:33:36.786Z,596.00
2023-02-02T08:34:36.689Z,597.00
2023-02-02T08:35:36.654Z,594.00
2023-02-02T08:36:36.635Z,603.00
2023-02-02T08:37:36.607Z,620.00
2023-02-02T08:38:36.581Z,622.00
2023-02-02T08:39:36.557Z,660.00
2023-02-02T08:40:36.636Z,652.00
2023-02-02T08:41:36.498Z,660.00
2023-02-02T08:42:36.480Z,668.00
2023-02-02T08:43:36.452Z,685.00
2023-02-02T08:45:00.995Z,713.00
2023-02-02T08:46:02.150Z,714.00
2023-02-02T08:46:37.524Z,723.00
2023-02-02T08:47:36.401Z,742.00
2023-02-02T08:48:36.377Z,766.00
2023-02-02T08:49:36.319Z,789.00
2023-02-02T08:50:36.291Z,790.00
2023-02-02T08:51:36.283Z,790.00
2023-02-02T08:52:36.239Z,795.00
2023-02-02T08:53:36.220Z,804.00
2023-02-02T08:54:36.192Z,807.00
2023-02-02T08:55:36.176Z,812.00
2023-02-02T08:56:36.173Z,834.00
2023-02-02T08:57:36.110Z,839.00
2023-02-02T08:58:36.095Z,840.00
2023-02-02T08:59:36.056Z,843.00
2023-02-02T09:00:36.011Z,845.00
2023-02-02T09:01:35.985Z,856.00
2023-02-02T09:02:36.020Z,863.00
2023-02-02T09:03:35.962Z,858.00
2023-02-02T09:04:35.930Z,864.00
2023-02-02T09:05:35.938Z,865.00
2023-02-02T09:06:35.858Z,867.00
2023-02-02T09:07:35.821Z,877.00
2023-02-02T09:08:35.847Z,888.00
2023-02-02T09:09:35.797Z,897.00
2023-02-02T09:10:36.440Z,922.00
2023-02-02T09:11:35.739Z,954.00
2023-02-02T09:12:35.692Z,952.00
2023-02-02T09:13:35.697Z,956.00
2023-02-02T09:14:35.658Z,967.00
2023-02-02T09:15:35.644Z,990.00
2023-02-02T09:16:35.633Z,1019.00
2023-02-02T09:17:35.566Z,1019.00
2023-02-02T09:18:35.526Z,1019.00
2023-02-02T09:19:35.494Z,1022.00
2023-02-02T09:20:35.463Z,1025.00
2023-02-02T09:21:35.435Z,1024.00
2023-02-02T09:22:35.490Z,1048.00
2023-02-02T09:23:35.404Z,1054.00
2023-02-02T09:24:35.393Z,1049.00
2023-02-02T09:25:35.327Z,996.00
2023-02-02T09:26:35.412Z,706.00
2023-02-02T09:27:35.272Z,669.00
2023-02-02T09:28:36.127Z,603.00
2023-02-02T09:29:35.263Z,688.00
2023-02-02T09:30:35.290Z,718.00
2023-02-02T09:31:35.315Z,732.00
2023-02-02T09:32:35.266Z,748.00
2023-02-02T09:33:35.265Z,820.00
2023-02-02T09:34:35.240Z,817.00
2023-02-02T09:35:35.253Z,792.00
2023-02-02T09:36:35.226Z,778.00
2023-02-02T09:37:35.213Z,768.00
2023-02-02T09:38:35.193Z,769.00
2023-02-02T09:40:35.139Z,781.00
2023-02-02T09:41:35.116Z,783.00
2023-02-02T09:42:35.115Z,790.00
2023-02-02T09:43:35.079Z,796.00
2023-02-02T09:44:35.077Z,798.00
2023-02-02T09:45:35.121Z,805.00
2023-02-02T09:46:35.017Z,815.00
2023-02-02T09:47:35.004Z,843.00
2023-02-02T09:48:34.993Z,890.00
2023-02-02T09:49:35.005Z,966.00
2023-02-02T09:50:35.118Z,984.00
2023-02-02T09:51:34.927Z,995.00
2023-02-02T09:52:34.892Z,1057.00
2023-02-02T09:53:36.584Z,1054.00
2023-02-02T09:54:34.831Z,1108.00
2023-02-02T09:55:34.809Z,1102.00
2023-02-02T09:56:34.802Z,1093.00
2023-02-02T09:57:34.778Z,1076.00
2023-02-02T09:58:34.741Z,1061.00
2023-02-02T09:59:34.732Z,1061.00
2023-02-02T10:00:34.916Z,1056.00
2023-02-02T10:01:34.718Z,956.00
2023-02-02T10:02:34.652Z,949.00
2023-02-02T10:03:34.772Z,941.00
2023-02-02T10:04:34.600Z,933.00
2023-02-02T10:05:34.592Z,939.00
2023-02-02T10:06:34.553Z,884.00
2023-02-02T10:07:34.541Z,838.00
2023-02-02T10:08:35.580Z,831.00
2023-02-02T10:09:34.528Z,835.00
2023-02-02T10:10:34.496Z,833.00
2023-02-02T10:11:34.445Z,833.00
2023-02-02T10:12:34.426Z,783.00
2023-02-02T10:13:34.425Z,780.00
2023-02-02T10:14:34.422Z,781.00
2023-02-02T10:15:34.422Z,788.00
2023-02-02T10:16:34.426Z,796.00
2023-02-02T10:17:34.365Z,795.00
2023-02-02T10:18:34.356Z,768.00
2023-02-02T10:19:34.338Z,754.00
2023-02-02T10:20:34.330Z,754.00
2023-02-02T10:21:34.320Z,760.00
2023-02-02T10:22:34.338Z,766.00
2023-02-02T10:23:34.304Z,741.00
2023-02-02T10:24:34.304Z,716.00
2023-02-02T10:25:34.309Z,737.00
2023-02-02T10:26:34.338Z,749.00
2023-02-02T10:27:34.310Z,769.00
2023-02-02T10:28:34.292Z,776.00
2023-02-02T10:29:48.090Z,721.00
2023-02-02T10:30:35.347Z,727.00
2023-02-02T10:31:34.414Z,724.00
2023-02-02T10:32:34.267Z,729.00
2023-02-02T10:33:34.264Z,732.00
2023-02-02T10:34:34.261Z,718.00
2023-02-02T10:35:34.253Z,710.00
2023-02-02T10:36:34.259Z,714.00
2023-02-02T10:37:34.244Z,719.00
2023-02-02T10:38:35.987Z,721.00
2023-02-02T10:39:34.233Z,718.00
2023-02-02T10:40:34.215Z,717.00
2023-02-02T10:41:34.207Z,758.00
2023-02-02T10:42:34.245Z,750.00
2023-02-02T10:43:34.186Z,739.00
2023-02-02T10:44:34.180Z,795.00
2023-02-02T10:45:34.158Z,794.00
2023-02-02T10:46:34.318Z,863.00
2023-02-02T10:47:34.140Z,905.00
2023-02-02T10:48:34.124Z,915.00
2023-02-02T10:49:34.111Z,902.00
2023-02-02T10:50:34.093Z,836.00
2023-02-02T10:51:34.101Z,788.00
2023-02-02T10:52:34.058Z,771.00
2023-02-02T10:53:34.081Z,764.00
2023-02-02T10:54:38.126Z,756.00
2023-02-02T10:55:35.047Z,746.00
2023-02-02T10:56:34.036Z,715.00
2023-02-02T10:57:34.139Z,678.00
2023-02-02T10:58:34.093Z,669.00
2023-02-02T10:59:34.019Z,661.00
2023-02-02T11:00:34.006Z,670.00
2023-02-02T11:01:34.138Z,705.00
2023-02-02T11:02:34.037Z,640.00
2023-02-02T11:03:33.985Z,623.00
2023-02-02T11:04:33.989Z,626.00
2023-02-02T11:05:33.979Z,634.00
2023-02-02T11:06:33.987Z,644.00
2023-02-02T11:07:33.965Z,679.00
2023-02-02T11:08:33.993Z,679.00
2023-02-02T11:09:33.965Z,688.00
2023-02-02T11:10:33.993Z,705.00
2023-02-02T11:11:33.955Z,749.00
2023-02-02T11:12:33.993Z,776.00
2023-02-02T11:13:33.995Z,779.00
2023-02-02T11:14:41.880Z,785.00
2023-02-02T11:15:35.021Z,793.00
2023-02-02T11:16:42.519Z,826.00
2023-02-02T11:17:34.926Z,894.00
2023-02-02T11:18:33.904Z,883.00
2023-02-02T11:19:33.869Z,882.00
2023-02-02T11:20:33.865Z,885.00
2023-02-02T11:21:33.845Z,899.00
2023-02-02T11:22:33.835Z,921.00
2023-02-02T11:23:33.836Z,947.00
2023-02-02T11:24:33.815Z,953.00
2023-02-02T11:25:33.789Z,976.00
2023-02-02T11:26:33.798Z,979.00
2023-02-02T11:27:33.744Z,980.00
2023-02-02T11:28:33.749Z,1050.00
2023-02-02T11:29:33.728Z,1026.00
2023-02-02T11:30:33.744Z,1029.00
2023-02-02T11:31:33.798Z,1037.00
2023-02-02T11:32:33.663Z,1038.00
2023-02-02T11:33:33.767Z,1070.00
2023-02-02T11:34:33.620Z,1087.00
2023-02-02T11:35:33.666Z,1148.00
2023-02-02T11:36:33.585Z,1167.00
2023-02-02T11:37:33.593Z,1193.00
2023-02-02T11:38:33.578Z,1209.00
2023-02-02T11:39:33.532Z,1180.00
2023-02-02T11:40:33.528Z,1175.00
2023-02-02T11:41:33.505Z,1243.00
2023-02-02T11:42:33.490Z,1235.00
2023-02-02T11:43:33.493Z,1248.00
2023-02-02T11:44:33.459Z,1290.00
2023-02-02T11:45:33.431Z,1398.00
2023-02-02T11:46:33.483Z,1368.00
2023-02-02T11:47:33.397Z,1396.00
2023-02-02T11:48:33.365Z,1397.00
2023-02-02T11:49:33.343Z,1386.00
2023-02-02T11:50:33.334Z,1398.00
2023-02-02T11:51:33.307Z,1406.00
2023-02-02T11:52:33.267Z,1444.00
2023-02-02T11:53:33.272Z,1478.00
2023-02-02T11:54:33.245Z,1477.00
2023-02-02T11:55:33.225Z,1483.00
2023-02-02T11:56:33.173Z,1515.00
2023-02-02T11:57:33.136Z,1525.00
2023-02-02T11:58:33.121Z,1534.00
2023-02-02T11:59:33.104Z,1532.00
2023-02-02T12:00:33.073Z,1538.00
2023-02-02T12:01:33.041Z,1548.00
2023-02-02T12:02:33.016Z,1553.00
2023-02-02T12:03:32.985Z,1564.00
2023-02-02T12:04:33.026Z,1576.00
2023-02-02T12:05:32.930Z,1582.00
2023-02-02T12:06:32.890Z,1627.00
2023-02-02T12:07:32.880Z,1643.00
2023-02-02T12:08:32.851Z,1635.00
2023-02-02T12:18:33.146Z,1688.00
2023-02-02T12:38:32.045Z,1384.00
2023-02-02T12:39:32.017Z,1377.00
2023-02-02T12:40:32.029Z,1273.00
2023-02-02T12:41:31.981Z,1283.00
2023-02-02T12:42:31.948Z,1294.00
2023-02-02T12:43:32.603Z,1307.00
2023-02-02T12:44:31.951Z,1302.00
2023-02-02T12:45:31.893Z,1250.00
2023-02-02T12:46:31.854Z,1229.00
2023-02-02T12:47:31.823Z,1219.00
2023-02-02T12:48:31.821Z,1227.00
2023-02-02T12:49:31.792Z,1237.00
2023-02-02T12:50:31.789Z,1223.00
2023-02-02T12:51:31.761Z,1180.00
2023-02-02T12:52:31.728Z,1175.00
2023-02-02T12:53:31.697Z,1185.00
2023-02-02T12:54:33.434Z,1186.00
2023-02-02T12:56:31.668Z,1099.00
2023-02-02T12:57:31.633Z,1090.00
2023-02-02T12:58:31.627Z,1088.00
2023-02-02T12:59:31.604Z,1086.00
2023-02-02T13:00:31.577Z,1082.00
2023-02-02T13:01:31.632Z,1070.00
2023-02-02T13:02:31.591Z,1059.00
2023-02-02T13:03:31.512Z,1052.00
2023-02-02T13:04:31.497Z,1056.00
2023-02-02T13:05:31.484Z,1065.00
2023-02-02T13:06:31.452Z,1056.00
2023-02-02T13:07:31.436Z,1035.00
2023-02-02T13:08:31.401Z,1020.00
2023-02-02T13:09:31.379Z,1020.00
2023-02-02T13:10:31.380Z,1014.00
2023-02-02T13:11:31.346Z,1018.00
2023-02-02T13:12:31.317Z,1015.00
2023-02-02T13:13:31.327Z,984.00
2023-02-02T13:14:31.299Z,973.00
2023-02-02T13:15:31.296Z,979.00
2023-02-02T13:16:31.285Z,982.00
2023-02-02T13:17:31.220Z,980.00
2023-02-02T13:18:31.221Z,969.00
2023-02-02T13:19:31.191Z,960.00
2023-02-02T13:20:31.164Z,958.00
2023-02-02T13:21:31.153Z,956.00
2023-02-02T13:22:31.114Z,953.00
2023-02-02T13:23:31.097Z,943.00
2023-02-02T13:24:31.095Z,927.00
2023-02-02T13:25:31.056Z,925.00
2023-02-02T13:26:31.181Z,925.00
2023-02-02T13:27:31.009Z,922.00
2023-02-02T13:28:30.983Z,922.00
2023-02-02T13:29:30.948Z,918.00
2023-02-02T13:30:30.958Z,910.00
2023-02-02T13:31:30.981Z,906.00
2023-02-02T13:32:30.871Z,907.00
2023-02-02T13:33:30.857Z,905.00
2023-02-02T13:34:30.844Z,902.00
2023-02-02T13:35:30.813Z,895.00
2023-02-02T13:36:30.800Z,887.00
2023-02-02T13:37:30.791Z,881.00
2023-02-02T13:38:30.750Z,880.00
2023-02-02T13:39:30.748Z,878.00
2023-02-02T13:41:30.696Z,865.00
2023-02-02T13:42:30.669Z,866.00
2023-02-02T13:43:30.652Z,863.00
2023-02-02T13:44:30.649Z,864.00
2023-02-02T13:45:30.624Z,862.00
2023-02-02T13:46:30.626Z,859.00
2023-02-02T13:47:30.584Z,851.00
2023-02-02T13:58:30.326Z,801.00
2023-02-02T14:07:30.137Z,792.00
2023-02-02T14:11:30.110Z,777.00
2023-02-02T14:17:29.987Z,767.00
2023-02-02T14:18:29.959Z,764.00
2023-02-02T14:20:29.891Z,756.00
2023-02-02T14:21:29.867Z,757.00
2023-02-02T14:22:29.898Z,761.00
2023-02-02T14:23:29.822Z,761.00
2023-02-02T14:24:29.817Z,754.00
2023-02-02T14:25:29.791Z,745.00
2023-02-02T14:26:29.938Z,745.00
2023-02-02T14:27:29.873Z,741.00
2023-02-02T14:28:29.727Z,738.00
2023-02-02T14:29:29.699Z,736.00
2023-02-02T14:30:29.667Z,727.00
2023-02-02T14:31:29.926Z,724.00
2023-02-02T14:32:29.718Z,724.00
2023-02-02T14:33:29.618Z,726.00
2023-02-02T14:34:29.609Z,726.00
2023-02-02T14:35:29.715Z,725.00
2023-02-02T14:36:29.578Z,720.00
2023-02-02T14:37:29.555Z,720.00
2023-02-02T14:38:29.524Z,719.00
2023-02-02T14:39:29.520Z,719.00
2023-02-02T14:40:29.492Z,713.00
2023-02-02T14:41:29.463Z,711.00
2023-02-02T14:42:29.458Z,708.00
2023-02-02T14:43:29.441Z,707.00
2023-02-02T14:44:29.433Z,709.00
2023-02-02T14:45:29.407Z,708.00
2023-02-02T14:46:29.421Z,701.00
2023-02-02T14:47:29.373Z,694.00
2023-02-02T14:48:29.365Z,693.00
2023-02-02T14:49:29.336Z,696.00
2023-02-02T14:50:29.335Z,694.00
2023-02-02T14:51:29.383Z,689.00
2023-02-02T14:52:29.308Z,681.00
2023-02-02T14:53:29.272Z,679.00
2023-02-02T14:54:29.274Z,683.00
2023-02-02T14:55:29.258Z,678.00
2023-02-02T14:56:29.214Z,679.00
2023-02-02T14:57:29.215Z,680.00
2023-02-02T14:58:29.175Z,680.00
2023-02-02T14:59:29.166Z,678.00
2023-02-02T15:00:29.151Z,681.00
2023-02-02T15:01:29.212Z,680.00
2023-02-02T15:02:29.200Z,675.00
2023-02-02T15:03:29.086Z,667.00
2023-02-02T15:04:29.077Z,667.00
2023-02-02T15:05:29.051Z,666.00
2023-02-02T15:06:29.025Z,665.00
2023-02-02T15:07:28.987Z,666.00
2023-02-02T15:08:28.977Z,660.00
2023-02-02T15:09:28.958Z,654.00
2023-02-02T15:10:28.929Z,659.00
2023-02-02T15:11:28.945Z,661.00
2023-02-02T15:12:28.897Z,660.00
2023-02-02T15:13:28.893Z,655.00
2023-02-02T15:14:28.861Z,653.00
2023-02-02T15:15:29.042Z,652.00
2023-02-02T15:16:28.837Z,654.00
2023-02-02T15:50:28.178Z,600.00
2023-02-02T19:33:23.558Z,480.00
2023-02-02T19:34:23.550Z,480.00
2023-02-02T19:35:23.846Z,477.00
2023-02-02T19:36:23.487Z,480.00
2023-02-02T19:37:23.471Z,481.00
2023-02-02T19:38:23.455Z,479.00
2023-02-02T19:39:23.411Z,480.00
2023-02-02T19:40:23.526Z,478.00
2023-02-02T19:41:23.359Z,477.00
2023-02-02T19:42:23.343Z,478.00
2023-02-02T19:43:23.318Z,479.00
2023-02-02T19:44:23.305Z,478.00
2023-02-02T19:45:23.266Z,478.00
2023-02-02T19:46:23.299Z,474.00
2023-02-02T19:47:23.231Z,474.00
2023-02-02T19:48:23.218Z,473.00
2023-02-02T19:49:23.177Z,475.00
2023-02-02T19:50:23.182Z,476.00
2023-02-02T19:51:23.138Z,475.00
2023-02-02T19:52:23.122Z,476.00
2023-02-02T19:53:23.143Z,477.00
2023-02-02T19:54:23.079Z,472.00
2023-02-02T19:55:23.051Z,472.00
2023-02-02T19:56:23.014Z,474.00
2023-02-02T19:57:22.992Z,476.00
2023-02-02T19:58:22.973Z,478.00
2023-02-02T19:59:22.941Z,477.00
2023-02-02T20:00:22.945Z,476.00
2023-02-02T20:01:22.885Z,476.00
2023-02-02T20:02:22.870Z,476.00
2023-02-02T20:03:23.049Z,474.00
2023-02-02T20:04:22.828Z,474.00
2023-02-02T20:05:22.800Z,473.00
2023-02-02T20:06:22.786Z,471.00
2023-02-02T20:07:22.756Z,466.00
2023-02-02T20:08:22.754Z,464.00
2023-02-02T20:09:22.718Z,467.00
2023-02-02T20:10:22.694Z,469.00
2023-02-02T20:11:22.676Z,469.00
2023-02-02T20:12:22.669Z,469.00
2023-02-02T20:13:22.666Z,472.00
2023-02-02T20:14:22.627Z,470.00
2023-02-02T20:15:22.601Z,468.00
2023-02-02T20:16:22.612Z,465.00
2023-02-02T20:17:22.560Z,465.00
2023-02-02T20:18:22.552Z,467.00
2023-02-02T20:19:22.507Z,465.00
2023-02-02T20:20:22.515Z,464.00
2023-02-02T20:21:22.472Z,465.00
2023-02-02T20:22:22.433Z,468.00
2023-02-02T20:23:22.407Z,468.00
2023-02-02T20:24:22.455Z,469.00
2023-02-02T20:25:22.367Z,470.00
2023-02-02T20:26:22.391Z,471.00
2023-02-02T20:27:22.312Z,474.00
2023-02-02T20:28:22.291Z,471.00
2023-02-02T20:29:22.306Z,467.00
2023-02-02T20:30:22.249Z,466.00
2023-02-02T20:31:22.379Z,463.00
2023-02-02T20:32:22.221Z,463.00
2023-02-02T20:33:22.190Z,466.00
2023-02-02T20:34:22.166Z,466.00
2023-02-02T20:35:22.120Z,469.00
2023-02-02T20:36:22.133Z,466.00
2023-02-02T20:37:22.084Z,465.00
2023-02-02T20:38:22.090Z,462.00
2023-02-02T20:39:22.048Z,459.00
2023-02-02T20:40:22.027Z,460.00
2023-02-02T20:41:22.042Z,458.00
2023-02-02T20:42:21.986Z,454.00
2023-02-02T20:43:21.963Z,452.00
2023-02-02T20:44:21.927Z,453.00
2023-02-02T20:45:21.907Z,455.00
2023-02-02T20:46:21.919Z,454.00
2023-02-02T20:47:21.858Z,452.00
2023-02-02T20:48:21.830Z,453.00
2023-02-02T20:49:21.793Z,452.00
2023-02-02T20:50:21.822Z,455.00
2023-02-02T20:51:21.786Z,460.00
2023-02-02T20:52:21.732Z,457.00
2023-02-02T20:53:21.718Z,456.00
2023-02-02T20:54:21.702Z,455.00
2023-02-02T20:55:21.667Z,453.00
2023-02-02T20:56:21.644Z,452.00
2023-02-02T20:57:21.610Z,452.00
2023-02-02T20:58:21.599Z,454.00
2023-02-02T20:59:21.571Z,455.00
2023-02-02T21:00:21.557Z,459.00
2023-02-02T21:01:21.553Z,457.00
2023-02-02T21:02:21.560Z,461.00
2023-02-02T21:03:21.495Z,462.00
2023-02-02T21:04:21.496Z,461.00
2023-02-02T21:05:21.462Z,465.00
2023-02-02T21:06:21.456Z,465.00
2023-02-02T21:07:21.431Z,464.00
2023-02-02T21:08:21.412Z,462.00
2023-02-02T21:09:21.379Z,460.00
2023-02-02T21:10:21.356Z,458.00
2023-02-02T21:11:21.338Z,459.00
2023-02-02T21:12:21.324Z,456.00
2023-02-02T21:13:21.326Z,453.00
2023-02-02T21:14:21.287Z,451.00
2023-02-02T21:15:21.270Z,451.00
2023-02-02T21:16:21.259Z,452.00
2023-02-02T21:17:21.258Z,450.00
2023-02-02T21:18:21.200Z,452.00
2023-02-02T21:19:21.180Z,453.00
2023-02-02T21:20:21.203Z,452.00
2023-02-02T21:21:21.177Z,452.00
2023-02-02T21:22:21.136Z,451.00
2023-02-02T21:23:21.086Z,453.00
2023-02-02T21:24:21.068Z,452.00
2023-02-02T21:25:21.030Z,451.00
2023-02-02T21:26:21.030Z,452.00
2023-02-02T21:27:21.026Z,452.00
2023-02-02T21:28:20.947Z,449.00
2023-02-02T21:29:20.933Z,452.00
2023-02-02T21:30:20.904Z,453.00
2023-02-02T21:31:21.008Z,453.00
2023-02-02T21:32:20.841Z,452.00
